Time;durP1;ratioP1;P1;durP2;ratioP2;P2;SDS_P1;SDS_P2;PMS_P1;PMS_P2;Temp;Humidity;BMP_temperature;BMP_pressure;BME280_temperature;BME280_humidity;BME280_pressure;Samples;Min_cycle;Max_cycle;Signal;HPM_P1;HPM_P2
2024/03/03 00:02:24;;;;;;;3.75;1.50;;;;;;;6.10;67.76;91424.59;2070246;69;20140;-75
2024/03/03 00:04:50;;;;;;;4.30;1.90;;;;;;;6.07;68.10;91423.03;2067284;69;20159;-74
2024/03/03 00:07:16;;;;;;;4.60;1.67;;;;;;;6.20;67.48;91440.47;2070927;69;20193;-75
2024/03/03 00:09:45;;;;;;;2.78;1.50;;;;;;;6.05;68.61;91427.78;2070431;69;20268;-74
2024/03/03 00:12:11;;;;;;;3.22;1.42;;;;;;;6.22;68.14;91396.59;2070152;69;20144;-75
2024/03/03 00:14:37;;;;;;;3.47;1.83;;;;;;;5.80;68.20;91406.09;2070457;69;20336;-75
2024/03/03 00:20:50;;;;;;;3.92;1.83;;;;;;;6.04;68.49;91396.31;2070274;69;20228;-77
2024/03/03 00:23:15;;;;;;;2.60;1.50;;;;;;;6.10;68.36;91393.16;2070881;69;20172;-74
2024/03/03 00:25:41;;;;;;;3.83;1.70;;;;;;;5.30;70.99;91393.44;2071279;69;20180;-75
2024/03/03 00:28:08;;;;;;;6.45;1.88;;;;;;;5.96;69.45;91376.31;2071447;69;20174;-74
2024/03/03 00:30:33;;;;;;;5.35;2.00;;;;;;;5.79;69.91;91368.34;2071369;69;20650;-75
2024/03/03 00:33:00;;;;;;;3.90;2.10;;;;;;;5.59;70.73;91365.84;2071186;69;20156;-76
2024/03/03 00:35:25;;;;;;;6.15;2.22;;;;;;;6.03;69.43;91363.41;2071556;69;20155;-76
2024/03/03 00:41:39;;;;;;;3.13;1.85;;;;;;;6.18;68.71;91359.31;2071389;69;20707;-74
2024/03/03 00:44:06;;;;;;;4.57;2.03;;;;;;;6.18;68.27;91350.94;2067712;69;20152;-74
2024/03/03 00:46:35;;;;;;;4.63;2.30;;;;;;;5.33;71.21;91365.06;2071325;69;20176;-77
2024/03/03 00:49:05;;;;;;;4.15;2.10;;;;;;;5.90;69.56;91375.94;2071250;69;20156;-75
2024/03/03 00:51:31;;;;;;;4.03;2.03;;;;;;;6.02;68.75;91375.94;2070953;69;20175;-76
2024/03/03 00:53:57;;;;;;;4.55;2.10;;;;;;;5.55;69.99;91382.38;2067480;69;20148;-75
2024/03/03 00:56:25;;;;;;;6.15;2.33;;;;;;;5.93;68.24;91385.91;2071156;69;20137;-75
2024/03/03 00:58:51;;;;;;;4.20;2.10;;;;;;;6.00;68.97;91384.19;2067738;69;20151;-74
2024/03/03 01:01:18;;;;;;;3.33;1.90;;;;;;;5.52;70.26;91383.56;2070962;69;20275;-74
2024/03/03 01:04:04;;;;;;;3.55;2.13;;;;;;;5.73;69.80;91390.34;2067904;69;20158;-75
2024/03/03 01:06:30;;;;;;;4.97;2.38;;;;;;;5.96;69.04;91375.59;2070577;69;20148;-75
2024/03/03 01:08:55;;;;;;;4.68;1.70;;;;;;;5.72;69.17;91364.47;2067166;69;20168;-76
2024/03/03 01:11:21;;;;;;;3.72;2.10;;;;;;;5.58;70.63;91375.53;2067691;69;20210;-75
2024/03/03 01:13:46;;;;;;;5.38;2.10;;;;;;;5.89;69.49;91366.09;2067456;69;20603;-75
2024/03/03 01:16:12;;;;;;;3.72;1.90;;;;;;;6.00;68.70;91356.25;2067950;69;20188;-75
2024/03/03 01:18:38;;;;;;;5.30;2.25;;;;;;;5.76;69.34;91359.09;2071053;69;20205;-76
2024/03/03 01:21:04;;;;;;;5.05;2.00;;;;;;;5.30;72.11;91359.97;2070800;69;20163;-74
2024/03/03 01:23:29;;;;;;;4.63;2.10;;;;;;;5.61;71.74;91349.19;2070970;69;20176;-75
2024/03/03 01:25:55;;;;;;;7.90;2.30;;;;;;;5.71;70.50;91353.91;2070890;69;20159;-75
2024/03/03 01:28:20;;;;;;;6.20;2.42;;;;;;;5.61;71.22;91345.69;2070907;69;20144;-75
2024/03/03 01:30:46;;;;;;;5.90;2.42;;;;;;;5.91;69.97;91341.09;2070909;69;20195;-74
2024/03/03 01:36:59;;;;;;;5.95;2.05;;;;;;;5.55;71.84;91325.81;2071041;69;20194;-74
2024/03/03 01:39:24;;;;;;;5.25;2.30;;;;;;;5.80;70.89;91325.81;2067785;69;20157;-75
2024/03/03 01:41:51;;;;;;;4.47;1.90;;;;;;;5.74;70.04;91324.78;2067643;69;20164;-75
2024/03/03 01:44:21;;;;;;;6.18;2.67;;;;;;;4.85;73.90;91332.97;2067863;69;20210;-74
2024/03/03 01:50:38;;;;;;;4.85;2.20;;;;;;;5.86;70.15;91333.81;2070959;69;20180;-76
2024/03/03 01:53:06;;;;;;;5.55;2.17;;;;;;;5.73;70.52;91332.41;2070949;69;20231;-75
2024/03/03 01:55:32;;;;;;;4.75;2.20;;;;;;;5.87;69.79;91324.09;2070491;69;20335;-75
2024/03/03 01:58:02;;;;;;;5.72;2.17;;;;;;;5.88;69.88;91331.13;2067617;69;20761;-75
2024/03/03 02:00:34;;;;;;;5.55;2.40;;;;;;;5.94;69.49;91325.19;2071001;69;20290;-76
2024/03/03 02:03:04;;;;;;;5.40;2.00;;;;;;;5.86;69.38;91315.00;2067559;69;20144;-76
2024/03/03 02:05:32;;;;;;;5.50;2.30;;;;;;;5.81;69.71;91315.38;2071043;69;20152;-76
2024/03/03 02:07:59;;;;;;;5.35;2.42;;;;;;;5.89;69.76;91307.44;2071052;69;20144;-75
2024/03/03 02:10:26;;;;;;;6.05;2.20;;;;;;;5.76;69.65;91294.16;2067645;69;20144;-75
2024/03/03 02:12:52;;;;;;;4.13;2.13;;;;;;;5.44;70.77;91309.81;2070994;69;20156;-74
2024/03/03 02:15:20;;;;;;;4.95;2.13;;;;;;;5.44;71.96;91309.81;2070854;69;20171;-75
2024/03/03 02:17:46;;;;;;;5.88;2.33;;;;;;;5.74;70.41;91313.59;2070805;69;20137;-75
2024/03/03 02:20:11;;;;;;;5.30;2.20;;;;;;;5.55;70.60;91304.19;2070930;69;20774;-75
2024/03/03 02:22:37;;;;;;;8.00;2.40;;;;;;;5.55;71.13;91301.41;2067355;69;20176;-75
2024/03/03 02:25:04;;;;;;;6.47;2.38;;;;;;;5.23;71.78;91294.72;2067750;69;20461;-74
2024/03/03 02:27:33;;;;;;;6.45;2.53;;;;;;;5.42;72.19;91298.53;2071078;69;20156;-75
2024/03/03 02:30:01;;;;;;;6.15;2.13;;;;;;;5.52;71.52;91297.03;2070561;69;20156;-74
2024/03/03 02:32:26;;;;;;;4.00;2.30;;;;;;;5.63;70.56;91297.59;2070756;69;20147;-75
2024/03/03 02:34:52;;;;;;;4.53;2.20;;;;;;;5.09;73.29;91307.84;2067564;69;20176;-75
2024/03/03 02:37:18;;;;;;;9.20;2.40;;;;;;;5.45;71.96;91314.81;2070782;69;20148;-75
2024/03/03 02:39:43;;;;;;;5.43;2.30;;;;;;;5.59;70.52;91301.63;2070976;69;20151;-75
2024/03/03 02:42:09;;;;;;;3.88;2.35;;;;;;;5.40;71.60;91313.09;2067292;69;20148;-76
2024/03/03 02:44:34;;;;;;;4.75;2.10;;;;;;;5.22;72.43;91321.16;2067384;69;20680;-75
2024/03/03 02:47:00;;;;;;;5.70;2.20;;;;;;;5.45;71.78;91320.38;2067365;69;20190;-76
2024/03/03 02:49:26;;;;;;;5.13;2.80;;;;;;;5.53;71.28;91317.31;2067509;69;20752;-76
2024/03/03 02:51:51;;;;;;;5.53;2.58;;;;;;;5.52;70.53;91316.59;2070689;69;20640;-76
2024/03/03 02:54:17;;;;;;;4.53;2.08;;;;;;;5.52;69.86;91313.06;2070473;69;20180;-75
2024/03/03 02:56:42;;;;;;;4.70;2.30;;;;;;;5.53;70.27;91311.72;2071013;69;20632;-74
2024/03/03 02:59:08;;;;;;;6.60;1.90;;;;;;;5.50;69.76;91313.69;2067528;69;20143;-75
2024/03/03 03:01:33;;;;;;;5.85;2.00;;;;;;;4.89;72.02;91303.88;2067643;69;20148;-74
2024/03/03 03:03:59;;;;;;;3.42;2.10;;;;;;;4.97;72.93;91298.75;2067454;69;20136;-75
2024/03/03 03:06:25;;;;;;;4.85;2.13;;;;;;;5.24;71.49;91292.66;2070879;69;20144;-75
2024/03/03 03:08:50;;;;;;;3.80;2.13;;;;;;;5.29;70.96;91281.09;2070887;69;20528;-74
2024/03/03 03:11:16;;;;;;;3.33;1.80;;;;;;;5.03;71.51;91288.69;2070917;69;20150;-75
2024/03/03 03:13:43;;;;;;;5.28;2.03;;;;;;;4.84;73.20;91295.25;2067462;69;20164;-75
2024/03/03 03:16:10;;;;;;;3.25;1.90;;;;;;;5.07;71.57;91269.38;2067549;69;20627;-75
2024/03/03 03:18:35;;;;;;;3.95;2.00;;;;;;;4.73;72.42;91292.50;2070354;69;20148;-76
2024/03/03 03:21:06;;;;;;;7.60;2.17;;;;;;;4.93;72.57;91287.38;2069981;69;20152;-75
2024/03/03 03:23:31;;;;;;;5.13;2.10;;;;;;;5.07;71.91;91286.13;2069836;69;20160;-74
2024/03/03 03:25:57;;;;;;;2.67;1.80;;;;;;;4.69;73.67;91295.03;2069834;69;20136;-75
2024/03/03 03:28:23;;;;;;;3.40;1.80;;;;;;;5.00;72.23;91280.81;2069596;69;20639;-74
2024/03/03 03:30:48;;;;;;;2.42;1.83;;;;;;;5.13;71.69;91285.03;2069453;69;20144;-74
2024/03/03 03:33:15;;;;;;;2.67;1.77;;;;;;;4.82;72.74;91300.00;2069770;69;20149;-74
2024/03/03 03:35:41;;;;;;;4.03;2.00;;;;;;;5.02;72.49;91280.94;2069782;69;20170;-75
2024/03/03 03:38:07;;;;;;;2.72;1.80;;;;;;;5.03;72.34;91288.69;2069741;69;20136;-75
2024/03/03 03:40:33;;;;;;;2.72;1.70;;;;;;;5.15;71.87;91291.47;2069860;69;20560;-74
2024/03/03 03:42:58;;;;;;;4.15;1.70;;;;;;;5.20;71.69;91281.25;2069740;69;20156;-75
2024/03/03 03:45:24;;;;;;;2.88;1.52;;;;;;;5.28;70.77;91296.41;2069773;69;20213;-74
2024/03/03 03:47:49;;;;;;;4.25;1.90;;;;;;;5.16;71.46;91298.47;2069767;69;20148;-74
2024/03/03 03:50:15;;;;;;;5.38;1.98;;;;;;;5.18;71.43;91287.47;2069800;69;20132;-75
2024/03/03 03:56:28;;;;;;;2.95;1.70;;;;;;;4.96;73.28;91303.63;2070552;69;20524;-76
2024/03/03 04:02:41;;;;;;;2.75;1.60;;;;;;;4.90;73.03;91316.47;2071560;69;20676;-74
2024/03/03 04:05:07;;;;;;;5.40;1.67;;;;;;;5.13;71.67;91321.28;2071584;69;20144;-75
2024/03/03 04:07:32;;;;;;;3.58;1.70;;;;;;;5.08;72.11;91309.16;2071552;69;20180;-75
2024/03/03 04:09:58;;;;;;;2.10;1.60;;;;;;;4.81;73.25;91327.16;2071586;69;20556;-76
2024/03/03 04:12:24;;;;;;;3.15;2.05;;;;;;;5.01;72.74;91330.41;2071287;69;20144;-76
2024/03/03 04:14:50;;;;;;;3.70;1.90;;;;;;;5.05;72.36;91318.78;2071347;69;20595;-75
2024/03/03 04:17:16;;;;;;;2.78;1.45;;;;;;;5.04;72.22;91314.50;2071491;69;20233;-75
2024/03/03 04:19:42;;;;;;;3.10;1.98;;;;;;;4.64;74.52;91324.00;2071588;69;20163;-76
2024/03/03 04:22:08;;;;;;;3.38;2.05;;;;;;;4.95;72.94;91316.13;2071439;69;20596;-76
2024/03/03 04:24:33;;;;;;;2.92;1.60;;;;;;;5.15;72.00;91310.25;2068121;69;20505;-76
2024/03/03 04:26:59;;;;;;;3.60;1.70;;;;;;;4.60;73.87;91321.69;2071414;69;20152;-76
2024/03/03 04:29:25;;;;;;;3.13;1.80;;;;;;;5.06;72.61;91312.56;2071361;69;20614;-73
2024/03/03 04:31:51;;;;;;;2.38;1.73;;;;;;;5.09;72.45;91310.63;2071419;69;20125;-74
2024/03/03 04:34:16;;;;;;;5.32;1.70;;;;;;;5.02;71.91;91319.97;2071581;69;20141;-76
2024/03/03 04:36:44;;;;;;;2.13;1.77;;;;;;;5.07;72.11;91316.81;2071454;69;20156;-77
2024/03/03 04:39:10;;;;;;;3.72;1.88;;;;;;;5.21;71.79;91314.13;2071335;69;20211;-75
2024/03/03 04:41:35;;;;;;;4.07;2.40;;;;;;;4.84;73.40;91325.22;2064929;69;20145;-76
2024/03/03 04:44:01;;;;;;;3.97;2.38;;;;;;;5.00;72.79;91315.03;2071161;69;20137;-75
2024/03/03 04:46:27;;;;;;;4.35;2.30;;;;;;;5.12;72.04;91309.41;2071259;69;20608;-75
2024/03/03 04:48:53;;;;;;;4.63;2.33;;;;;;;5.19;71.28;91313.28;2065076;69;20139;-76
2024/03/03 04:51:18;;;;;;;7.00;3.65;;;;;;;4.79;73.48;91320.72;2067718;69;20175;-75
2024/03/03 04:53:44;;;;;;;7.40;4.65;;;;;;;5.06;72.11;91328.59;2067857;69;20151;-76
2024/03/03 04:56:10;;;;;;;11.77;5.13;;;;;;;5.08;72.04;91323.09;2071191;69;20228;-74
2024/03/03 04:58:36;;;;;;;9.75;5.30;;;;;;;5.01;72.31;91324.09;2071384;69;20224;-75
2024/03/03 05:01:01;;;;;;;14.15;6.07;;;;;;;4.79;72.45;91326.31;2071242;69;20791;-75
2024/03/03 05:03:28;;;;;;;12.85;6.82;;;;;;;4.74;73.36;91324.59;2071163;69;20220;-76
2024/03/03 05:05:54;;;;;;;9.98;5.53;;;;;;;4.89;72.81;91312.94;2071337;69;20484;-76
2024/03/03 05:08:20;;;;;;;5.70;3.80;;;;;;;4.54;73.83;91324.13;2067849;69;20221;-76
2024/03/03 05:10:45;;;;;;;27.98;14.52;;;;;;;4.29;76.16;91328.22;2071510;69;20147;-75
2024/03/03 05:13:11;;;;;;;19.05;9.18;;;;;;;4.73;73.71;91307.16;2071447;69;20235;-76
2024/03/03 05:15:38;;;;;;;7.57;4.40;;;;;;;4.76;73.79;91333.81;2071895;69;20245;-74
2024/03/03 05:18:04;;;;;;;8.35;4.72;;;;;;;4.74;73.89;91330.19;2071759;69;20155;-75
2024/03/03 05:20:30;;;;;;;10.23;5.70;;;;;;;4.87;73.36;91337.22;2071708;69;20133;-76
2024/03/03 05:22:55;;;;;;;16.20;8.30;;;;;;;4.76;73.60;91339.38;2071759;69;20190;-75
2024/03/03 05:25:22;;;;;;;14.95;8.30;;;;;;;4.91;73.07;91340.25;2071782;69;20223;-75
2024/03/03 05:27:48;;;;;;;12.65;7.68;;;;;;;4.96;72.84;91331.50;2071546;69;20587;-76
2024/03/03 05:30:13;;;;;;;12.55;6.82;;;;;;;4.65;73.33;91334.53;2071694;69;20552;-75
2024/03/03 05:32:39;;;;;;;15.93;8.45;;;;;;;4.38;76.25;91346.16;2068282;69;20221;-76
2024/03/03 05:35:05;;;;;;;14.10;8.80;;;;;;;4.56;75.50;91338.19;2071903;69;20148;-74
2024/03/03 05:37:31;;;;;;;11.68;7.75;;;;;;;4.52;75.13;91335.88;2068356;69;20221;-76
2024/03/03 05:39:56;;;;;;;9.73;6.15;;;;;;;4.64;74.57;91337.94;2071843;69;20640;-75
2024/03/03 05:42:22;;;;;;;11.00;6.32;;;;;;;4.81;74.23;91338.31;2071720;69;20167;-75
2024/03/03 05:44:48;;;;;;;4.28;2.25;;;;;;;4.19;77.23;91349.16;2071523;69;20155;-75
2024/03/03 05:47:13;;;;;;;7.18;4.55;;;;;;;4.65;75.18;91337.34;2071690;69;20223;-75
2024/03/03 05:49:40;;;;;;;7.95;3.80;;;;;;;4.71;74.19;91336.97;2071808;69;20492;-75
2024/03/03 05:52:05;;;;;;;6.32;3.63;;;;;;;4.39;75.59;91346.88;2071748;69;20595;-75
2024/03/03 05:54:31;;;;;;;6.57;3.97;;;;;;;4.75;74.49;91337.22;2068509;69;20155;-76
2024/03/03 05:56:56;;;;;;;7.85;5.30;;;;;;;4.84;73.05;91341.94;2071663;69;20140;-75
2024/03/03 05:59:22;;;;;;;5.70;3.90;;;;;;;4.81;73.63;91345.94;2071829;69;20163;-74
2024/03/03 06:01:52;;;;;;;7.88;4.50;;;;;;;4.86;73.72;91333.72;2071699;69;20642;-75
2024/03/03 06:04:19;;;;;;;7.45;3.85;;;;;;;4.66;73.74;91340.84;2071624;69;20656;-75
2024/03/03 06:06:45;;;;;;;8.80;3.92;;;;;;;4.67;74.67;91350.66;2071615;69;20132;-75
2024/03/03 06:09:12;;;;;;;6.43;4.40;;;;;;;4.76;74.68;91331.03;2071620;69;20244;-74
2024/03/03 06:11:41;;;;;;;7.35;3.50;;;;;;;4.80;74.67;91333.31;2071602;69;20593;-75
2024/03/03 06:14:08;;;;;;;6.72;3.83;;;;;;;4.45;75.56;91342.41;2071870;69;20148;-76
2024/03/03 06:16:35;;;;;;;7.05;3.78;;;;;;;4.82;74.14;91334.19;2071770;69;20168;-75
2024/03/03 06:19:02;;;;;;;7.53;4.30;;;;;;;4.66;74.77;91335.28;2071820;69;20576;-75
2024/03/03 06:21:28;;;;;;;7.05;4.18;;;;;;;4.83;74.02;91323.75;2071549;69;20240;-75
2024/03/03 06:23:54;;;;;;;7.95;4.80;;;;;;;4.49;74.81;91331.53;2071562;69;20140;-75
2024/03/03 06:26:20;;;;;;;13.55;8.85;;;;;;;4.47;76.27;91347.38;2071974;69;20205;-75
2024/03/03 06:28:46;;;;;;;17.77;9.77;;;;;;;4.82;75.31;91330.66;2071799;69;20168;-76
2024/03/03 06:31:12;;;;;;;14.93;8.43;;;;;;;4.49;76.15;91351.03;2071417;69;20159;-76
2024/03/03 06:33:38;;;;;;;16.95;8.93;;;;;;;4.87;75.05;91337.94;2071584;69;20144;-75
2024/03/03 06:36:04;;;;;;;17.77;6.82;;;;;;;4.95;74.58;91341.22;2071636;69;20229;-75
2024/03/03 06:38:29;;;;;;;15.60;7.03;;;;;;;5.09;73.72;91338.53;2071839;69;20152;-75
2024/03/03 06:40:55;;;;;;;10.00;6.10;;;;;;;4.64;75.34;91347.03;2071757;69;20141;-74
2024/03/03 06:43:21;;;;;;;11.15;6.43;;;;;;;4.88;74.90;91341.44;2071890;69;20172;-74
2024/03/03 06:45:47;;;;;;;18.92;9.93;;;;;;;5.17;74.45;91335.47;2071946;69;20511;-74
2024/03/03 06:48:12;;;;;;;11.32;7.15;;;;;;;5.29;73.76;91342.50;2068320;69;20156;-74
2024/03/03 06:50:38;;;;;;;14.45;7.05;;;;;;;5.02;74.67;91361.81;2071781;69;20136;-74
2024/03/03 06:53:04;;;;;;;12.15;5.88;;;;;;;5.29;73.58;91345.28;2071417;69;20144;-73
2024/03/03 06:55:30;;;;;;;8.73;5.10;;;;;;;5.44;73.30;91330.06;2071720;69;20163;-76
2024/03/03 06:57:56;;;;;;;10.05;5.07;;;;;;;5.48;72.54;91344.25;2071655;69;20531;-74
2024/03/03 07:00:23;;;;;;;9.55;4.63;;;;;;;5.50;72.83;91344.41;2071889;69;20168;-73
2024/03/03 07:03:19;;;;;;;7.93;5.10;;;;;;;5.68;71.77;91353.09;2071639;69;20150;-75
2024/03/03 07:05:45;;;;;;;10.25;5.05;;;;;;;5.80;71.76;91353.75;2071983;69;20226;-75
2024/03/03 07:08:11;;;;;;;8.13;4.43;;;;;;;5.96;71.45;91347.66;2071621;69;20136;-74
2024/03/03 07:10:37;;;;;;;11.70;5.03;;;;;;;5.64;72.99;91354.91;2071712;69;20152;-75
2024/03/03 07:13:02;;;;;;;11.75;6.60;;;;;;;5.80;72.39;91355.81;2071441;69;20646;-75
2024/03/03 07:15:28;;;;;;;13.75;7.05;;;;;;;6.13;71.52;91357.66;2071768;69;20144;-74
2024/03/03 07:17:54;;;;;;;13.50;8.07;;;;;;;5.91;71.92;91357.09;2068289;69;20255;-73
2024/03/03 07:20:20;;;;;;;21.92;11.23;;;;;;;6.05;72.06;91355.88;2071744;69;20592;-74
2024/03/03 07:22:46;;;;;;;21.25;11.10;;;;;;;6.27;71.54;91355.63;2068392;69;20201;-74
2024/03/03 07:25:13;;;;;;;20.85;10.10;;;;;;;6.33;71.17;91356.69;2071983;69;20148;-75
2024/03/03 07:27:39;;;;;;;19.83;10.20;;;;;;;6.47;70.69;91350.44;2071449;69;20152;-75
2024/03/03 07:30:05;;;;;;;17.15;8.55;;;;;;;5.92;72.40;91362.13;2071252;69;20159;-75
2024/03/03 07:32:31;;;;;;;14.65;7.28;;;;;;;6.25;71.58;91356.25;2071364;69;20194;-74
2024/03/03 07:34:57;;;;;;;14.63;6.72;;;;;;;6.53;70.76;91342.34;2071222;69;20210;-75
2024/03/03 07:37:22;;;;;;;12.32;6.50;;;;;;;6.60;70.74;91350.47;2070800;69;20179;-75
2024/03/03 07:39:50;;;;;;;20.23;11.27;;;;;;;5.90;72.95;91370.34;2071316;69;20523;-75
2024/03/03 07:42:16;;;;;;;13.63;7.85;;;;;;;6.20;72.30;91351.78;2071298;69;20251;-75
2024/03/03 07:44:41;;;;;;;12.93;7.75;;;;;;;6.29;71.61;91361.34;2071229;69;20146;-75
2024/03/03 07:47:07;;;;;;;15.45;8.35;;;;;;;6.14;72.46;91367.47;2071171;69;20243;-76
2024/03/03 07:49:32;;;;;;;17.73;9.40;;;;;;;6.72;70.84;91355.22;2071345;69;20609;-76
2024/03/03 07:51:58;;;;;;;14.88;8.15;;;;;;;6.27;71.64;91355.63;2071292;69;20145;-76
2024/03/03 07:54:24;;;;;;;17.00;8.80;;;;;;;6.57;70.80;91354.47;2072332;69;20168;-76
2024/03/03 07:56:50;;;;;;;20.48;11.35;;;;;;;6.57;70.50;91367.75;2071534;69;20139;-75
2024/03/03 07:59:15;;;;;;;20.17;10.73;;;;;;;6.95;69.03;91354.34;2071642;69;20155;-75
2024/03/03 08:01:41;;;;;;;20.15;10.20;;;;;;;6.91;70.51;91362.50;2071754;69;20155;-76
2024/03/03 08:04:09;;;;;;;15.75;9.60;;;;;;;7.27;69.00;91363.69;2071675;69;20626;-76
2024/03/03 08:06:37;;;;;;;11.18;6.25;;;;;;;7.25;67.92;91355.91;2071589;69;20161;-76
2024/03/03 08:09:03;;;;;;;9.75;5.40;;;;;;;7.59;66.94;91354.09;2071879;69;20195;-75
2024/03/03 08:11:35;;;;;;;7.68;4.63;;;;;;;6.94;68.47;91359.22;2068186;69;20208;-76
2024/03/03 08:14:04;;;;;;;7.93;4.90;;;;;;;6.79;69.42;91354.22;2071619;69;20148;-77
2024/03/03 08:16:30;;;;;;;9.18;4.80;;;;;;;7.45;67.98;91349.88;2071641;69;20260;-75
2024/03/03 08:18:56;;;;;;;8.00;4.60;;;;;;;7.44;67.50;91349.16;2071540;69;20183;-76
2024/03/03 08:21:23;;;;;;;13.40;5.45;;;;;;;7.14;68.72;91365.84;2071186;69;20619;-78
2024/03/03 08:23:49;;;;;;;8.65;4.63;;;;;;;7.64;68.24;91361.38;2068169;69;20167;-77
2024/03/03 08:26:15;;;;;;;10.80;4.10;;;;;;;7.97;66.88;91356.63;2065488;69;20148;-76
2024/03/03 08:28:41;;;;;;;6.93;4.40;;;;;;;8.17;66.38;91356.91;2068844;69;20252;-77
2024/03/03 08:31:06;;;;;;;7.70;4.57;;;;;;;8.21;65.84;91351.47;2071679;69;20137;-76
2024/03/03 08:33:32;;;;;;;7.78;5.40;;;;;;;7.49;67.82;91359.22;2071481;69;20171;-77
2024/03/03 08:35:58;;;;;;;6.28;4.65;;;;;;;7.65;67.69;91362.09;2071567;69;20155;-78
2024/03/03 08:38:24;;;;;;;14.35;6.68;;;;;;;8.03;67.70;91356.94;2068013;69;20243;-78
2024/03/03 08:40:51;;;;;;;9.98;5.90;;;;;;;8.17;66.29;91342.88;2071478;69;20683;-78
2024/03/03 08:43:17;;;;;;;14.60;5.93;;;;;;;8.49;65.74;91354.94;2068035;69;20547;-78
2024/03/03 08:45:43;;;;;;;16.67;6.45;;;;;;;8.57;65.53;91353.22;2071880;69;20167;-77
2024/03/03 08:48:08;;;;;;;13.65;7.57;;;;;;;8.31;65.94;91347.06;2068316;69;20500;-78
2024/03/03 08:50:34;;;;;;;8.85;5.53;;;;;;;8.63;64.70;91331.06;2071986;69;20584;-77
2024/03/03 08:53:00;;;;;;;7.95;4.82;;;;;;;7.95;65.88;91351.66;2071902;69;20198;-77
2024/03/03 08:55:26;;;;;;;8.10;4.45;;;;;;;7.97;65.75;91339.81;2072040;69;20241;-77
2024/03/03 08:57:51;;;;;;;9.00;4.90;;;;;;;8.48;65.00;91331.78;2072017;69;20159;-78
2024/03/03 09:00:17;;;;;;;7.60;4.15;;;;;;;8.74;64.12;91340.66;2071723;69;20160;-76
2024/03/03 09:02:43;;;;;;;9.35;5.80;;;;;;;8.46;64.08;91345.69;2071793;69;20237;-78
2024/03/03 09:05:11;;;;;;;8.60;4.43;;;;;;;8.49;64.44;91330.41;2071876;69;20136;-76
2024/03/03 09:07:37;;;;;;;10.43;5.20;;;;;;;8.76;63.80;91348.44;2071851;69;20156;-78
2024/03/03 09:10:07;;;;;;;11.45;4.47;;;;;;;8.68;63.27;91340.38;2071851;69;20171;-75
2024/03/03 09:12:32;;;;;;;6.38;3.72;;;;;;;8.78;63.43;91349.25;2071942;69;20152;-78
2024/03/03 09:15:00;;;;;;;8.13;4.20;;;;;;;8.70;63.32;91348.16;2072046;69;20156;-77
2024/03/03 09:17:25;;;;;;;8.50;4.47;;;;;;;8.67;63.71;91338.22;2068483;69;20151;-80
2024/03/03 09:23:39;;;;;;;7.70;4.15;;;;;;;8.88;63.08;91315.31;2071845;69;20177;-77
2024/03/03 09:29:52;;;;;;;8.75;4.50;;;;;;;8.97;62.55;91319.94;2071793;69;20614;-77
2024/03/03 09:32:18;;;;;;;6.35;4.10;;;;;;;9.03;62.82;91334.25;2071807;69;20600;-77
2024/03/03 09:34:44;;;;;;;9.32;4.85;;;;;;;9.06;63.03;91323.81;2068563;69;20163;-79
2024/03/03 09:37:15;;;;;;;7.45;3.70;;;;;;;9.22;62.52;91337.84;2071783;69;20148;-77
2024/03/03 09:39:41;;;;;;;4.85;2.50;;;;;;;8.86;61.14;91337.69;2068604;69;20210;-78
2024/03/03 09:42:06;;;;;;;6.88;3.10;;;;;;;9.07;62.37;91326.00;2071841;69;20152;-79
2024/03/03 09:44:42;;;;;;;11.05;5.82;;;;;;;8.50;64.63;91336.75;2068634;69;20148;-77
2024/03/03 09:47:13;;;;;;;12.13;6.60;;;;;;;8.71;64.86;91325.09;2073870;69;20139;-78
2024/03/03 09:49:42;;;;;;;12.73;5.03;;;;;;;9.15;63.44;91331.97;2071297;69;20150;-77
2024/03/03 09:52:13;;;;;;;6.40;4.32;;;;;;;9.45;63.21;91331.84;2072236;69;20132;-79
2024/03/03 09:54:41;;;;;;;7.00;3.30;;;;;;;9.50;62.31;91316.59;2071909;69;20189;-78
2024/03/03 09:57:12;;;;;;;5.95;4.13;;;;;;;9.31;61.99;91339.66;2071686;69;20152;-79
2024/03/03 09:59:40;;;;;;;5.97;3.17;;;;;;;9.38;61.52;91314.00;2071826;69;20124;-80
2024/03/03 10:02:18;;;;;;;3.95;2.50;;;;;;;9.42;61.44;91310.63;2071761;69;20179;-78
2024/03/03 10:04:47;;;;;;;2.85;1.95;;;;;;;9.64;60.27;91314.38;2068676;69;20243;-79
2024/03/03 10:07:25;;;;;;;3.08;1.90;;;;;;;9.83;58.62;91315.88;2071933;69;20582;-79
2024/03/03 10:10:02;;;;;;;5.13;1.92;;;;;;;9.93;57.51;91316.28;2071960;69;20152;-76
2024/03/03 10:12:31;;;;;;;2.72;1.85;;;;;;;10.09;57.33;91312.69;2068673;69;20251;-75
2024/03/03 10:14:59;;;;;;;3.83;2.08;;;;;;;10.38;57.07;91317.38;2065754;69;20145;-76
2024/03/03 10:17:25;;;;;;;5.65;2.30;;;;;;;10.57;57.05;91307.53;2071885;69;20148;-77
2024/03/03 10:23:38;;;;;;;4.57;2.00;;;;;;;11.33;55.86;91299.78;2071853;69;20209;-76
2024/03/03 10:26:04;;;;;;;3.88;2.20;;;;;;;11.65;55.92;91289.66;2071792;69;20530;-78
2024/03/03 10:28:30;;;;;;;3.05;1.65;;;;;;;11.25;54.63;91299.50;2071784;69;20125;-78
2024/03/03 10:31:11;;;;;;;4.72;2.63;;;;;;;11.13;54.25;91300.50;2071830;69;20210;-77
2024/03/03 10:33:37;;;;;;;5.07;1.83;;;;;;;11.04;53.42;91289.59;2071701;69;20143;-79
2024/03/03 10:36:09;;;;;;;3.95;2.25;;;;;;;11.94;53.93;91262.41;2068413;69;20156;-77
2024/03/03 10:38:34;;;;;;;3.07;2.03;;;;;;;12.28;53.20;91276.19;2071760;69;20572;-75
2024/03/03 10:41:00;;;;;;;5.32;2.13;;;;;;;12.42;51.68;91268.19;2071898;69;20148;-80
2024/03/03 10:43:25;;;;;;;2.95;1.80;;;;;;;12.89;52.18;91261.84;2071709;69;20197;-80
2024/03/03 10:45:51;;;;;;;3.47;1.90;;;;;;;12.96;50.88;91266.25;2068477;69;20576;-78
2024/03/03 10:48:17;;;;;;;3.72;2.30;;;;;;;13.34;51.12;91270.91;2071597;69;20218;-79
2024/03/03 10:50:46;;;;;;;3.75;2.25;;;;;;;13.64;50.66;91256.84;2068187;69;20171;-79
2024/03/03 10:53:12;;;;;;;4.43;1.70;;;;;;;12.65;50.96;91263.94;2071563;69;20225;-79
2024/03/03 10:55:41;;;;;;;4.07;1.65;;;;;;;15.11;49.92;91252.56;2068340;69;20147;-77
2024/03/03 10:58:08;;;;;;;2.72;1.73;;;;;;;16.99;46.24;91255.88;2071728;69;20576;-77
2024/03/03 11:00:35;;;;;;;2.40;1.42;;;;;;;17.88;43.50;91253.47;2071751;69;20242;-78
2024/03/03 11:03:04;;;;;;;3.53;1.50;;;;;;;20.18;41.28;91247.91;2071661;69;20597;-77
2024/03/03 11:05:30;;;;;;;3.33;1.50;;;;;;;21.10;38.85;91257.25;2068389;69;20156;-78
2024/03/03 11:07:57;;;;;;;2.83;1.40;;;;;;;22.29;36.54;91243.31;2071354;69;20574;-79
2024/03/03 11:10:25;;;;;;;3.85;1.40;;;;;;;23.08;35.95;91236.31;2071608;69;20171;-78
2024/03/03 11:12:51;;;;;;;2.55;1.60;;;;;;;22.48;34.93;91221.69;2071654;69;20592;-78
2024/03/03 11:15:20;;;;;;;2.83;1.40;;;;;;;23.52;33.15;91223.69;2071790;69;20139;-78
2024/03/03 11:18:00;;;;;;;2.80;1.60;;;;;;;23.12;32.64;91236.28;2071590;69;20579;-79
2024/03/03 11:20:37;;;;;;;2.45;1.50;;;;;;;24.47;33.33;91234.81;2071727;69;20203;-79
2024/03/03 11:23:27;;;;;;;2.45;1.40;;;;;;;26.36;31.03;91220.00;2071651;69;20156;-79
2024/03/03 11:26:28;;;;;;;2.85;1.70;;;;;;;26.05;31.03;91217.03;2071625;69;20197;-80
2024/03/03 11:28:57;;;;;;;2.65;1.20;;;;;;;28.74;29.94;91215.41;2070371;69;20167;-80
2024/03/03 11:31:24;;;;;;;4.05;1.50;;;;;;;25.75;29.18;91244.25;2071659;69;20271;-80
2024/03/03 11:33:52;;;;;;;2.92;1.10;;;;;;;29.22;27.02;91226.97;2071676;69;20159;-80
2024/03/03 11:36:19;;;;;;;3.28;1.13;;;;;;;25.68;29.09;91227.81;2071714;69;20148;-79
2024/03/03 11:38:48;;;;;;;1.98;1.25;;;;;;;29.97;26.90;91199.84;2068750;69;20152;-80
2024/03/03 11:41:20;;;;;;;3.30;0.90;;;;;;;29.02;24.64;91205.16;2073318;69;20619;-80
2024/03/03 11:43:46;;;;;;;1.55;1.10;;;;;;;29.83;24.43;91209.75;2068651;69;20231;-79
2024/03/03 11:46:50;;;;;;;1.30;0.88;;;;;;;32.77;24.63;91212.63;2071913;69;20142;-80
2024/03/03 11:49:17;;;;;;;5.43;1.25;;;;;;;26.45;23.18;91216.97;2071673;69;20147;-80
2024/03/03 11:51:42;;;;;;;0.65;0.50;;;;;;;29.92;22.26;91205.09;2071592;69;20596;-79
2024/03/03 11:54:12;;;;;;;0.43;0.30;;;;;;;27.15;22.34;91199.47;2071719;69;20185;-80
2024/03/03 11:56:50;;;;;;;0.85;0.32;;;;;;;28.38;23.17;91205.63;2071558;69;20231;-80
2024/03/03 11:59:16;;;;;;;0.70;0.40;;;;;;;30.35;20.57;91203.56;2071592;69;20600;-81
2024/03/03 12:01:49;;;;;;;0.77;0.20;;;;;;;29.03;22.14;91231.91;2071680;69;20136;-80
2024/03/03 12:04:16;;;;;;;0.55;0.30;;;;;;;27.35;22.25;91198.97;2072087;69;20683;-79
2024/03/03 12:06:43;;;;;;;0.77;0.50;;;;;;;27.16;21.95;91220.41;2071809;69;20136;-81
2024/03/03 12:09:13;;;;;;;4.63;0.40;;;;;;;29.44;21.12;91222.63;2072620;69;20140;-79
2024/03/03 12:11:41;;;;;;;0.13;0.10;;;;;;;27.79;21.16;91239.75;2071585;69;20172;-79
2024/03/03 12:14:07;;;;;;;0.60;0.17;;;;;;;27.85;22.46;91225.13;2071616;69;20227;-80